sensor_id;sensor_type;location;lat;lon;timestamp;pressure;altitude;pressure_sealevel;temperature;humidity
17072;BME280;7731;50.720;6.912;2023-01-26T00:01:34;100965.50;;;-1.48;100.00
17072;BME280;7731;50.720;6.912;2023-01-26T00:04:04;100973.78;;;-1.57;100.00
17072;BME280;7731;50.720;6.912;2023-01-26T00:06:37;100960.38;;;-1.54;100.00
17072;BME280;7731;50.720;6.912;2023-01-26T00:09:14;100960.81;;;-1.20;100.00
17072;BME280;7731;50.720;6.912;2023-01-26T00:11:44;100957.19;;;-1.44;100.00
17072;BME280;7731;50.720;6.912;2023-01-26T00:14:15;100948.19;;;-1.22;100.00
17072;BME280;7731;50.720;6.912;2023-01-26T00:16:45;100935.97;;;-0.88;100.00
17072;BME280;7731;50.720;6.912;2023-01-26T00:19:16;100940.56;;;-1.27;100.00
17072;BME280;7731;50.720;6.912;2023-01-26T00:21:49;100947.91;;;-1.45;100.00
17072;BME280;7731;50.720;6.912;2023-01-26T00:24:19;100934.97;;;-1.70;100.00
17072;BME280;7731;50.720;6.912;2023-01-26T00:26:49;100936.84;;;-1.58;100.00
17072;BME280;7731;50.720;6.912;2023-01-26T00:29:19;100927.78;;;-1.42;100.00
17072;BME280;7731;50.720;6.912;2023-01-26T00:31:49;100928.09;;;-1.82;100.00
17072;BME280;7731;50.720;6.912;2023-01-26T00:34:20;100928.13;;;-1.14;100.00
17072;BME280;7731;50.720;6.912;2023-01-26T00:36:52;100924.44;;;-1.42;100.00
17072;BME280;7731;50.720;6.912;2023-01-26T00:39:23;100917.72;;;-1.42;100.00
17072;BME280;7731;50.720;6.912;2023-01-26T00:41:53;100919.13;;;-1.63;100.00
17072;BME280;7731;50.720;6.912;2023-01-26T00:44:37;100912.50;;;-1.54;100.00
17072;BME280;7731;50.720;6.912;2023-01-26T00:47:11;100910.66;;;-1.68;100.00
17072;BME280;7731;50.720;6.912;2023-01-26T00:49:41;100905.69;;;-1.62;100.00
17072;BME280;7731;50.720;6.912;2023-01-26T00:52:14;100908.94;;;-1.72;100.00
17072;BME280;7731;50.720;6.912;2023-01-26T00:54:52;100909.13;;;-1.56;100.00
17072;BME280;7731;50.720;6.912;2023-01-26T00:57:22;100904.31;;;-1.39;100.00
17072;BME280;7731;50.720;6.912;2023-01-26T00:59:52;100903.13;;;-1.66;100.00
17072;BME280;7731;50.720;6.912;2023-01-26T01:02:22;100904.94;;;-1.56;100.00
17072;BME280;7731;50.720;6.912;2023-01-26T01:04:53;100903.34;;;-1.48;100.00
17072;BME280;7731;50.720;6.912;2023-01-26T01:07:25;100902.28;;;-1.67;100.00
17072;BME280;7731;50.720;6.912;2023-01-26T01:09:55;100909.78;;;-1.71;100.00
17072;BME280;7731;50.720;6.912;2023-01-26T01:12:27;100906.50;;;-1.66;100.00
17072;BME280;7731;50.720;6.912;2023-01-26T01:14:57;100902.81;;;-1.88;100.00
17072;BME280;7731;50.720;6.912;2023-01-26T01:17:27;100910.28;;;-1.95;100.00
17072;BME280;7731;50.720;6.912;2023-01-26T01:19:57;100895.06;;;-2.02;100.00
17072;BME280;7731;50.720;6.912;2023-01-26T01:22:30;100894.72;;;-2.26;100.00
17072;BME280;7731;50.720;6.912;2023-01-26T01:25:01;100895.66;;;-2.18;100.00
17072;BME280;7731;50.720;6.912;2023-01-26T01:27:31;100901.03;;;-1.96;100.00
17072;BME280;7731;50.720;6.912;2023-01-26T01:30:01;100892.16;;;-1.70;100.00
17072;BME280;7731;50.720;6.912;2023-01-26T01:32:35;100891.31;;;-2.30;100.00
17072;BME280;7731;50.720;6.912;2023-01-26T01:35:07;100884.41;;;-1.84;100.00
17072;BME280;7731;50.720;6.912;2023-01-26T01:37:40;100893.50;;;-1.96;100.00
17072;BME280;7731;50.720;6.912;2023-01-26T01:40:12;100889.09;;;-2.10;100.00
17072;BME280;7731;50.720;6.912;2023-01-26T01:42:47;100887.31;;;-2.16;100.00
17072;BME280;7731;50.720;6.912;2023-01-26T01:45:40;100880.31;;;-2.35;100.00
17072;BME280;7731;50.720;6.912;2023-01-26T01:48:20;100884.03;;;-2.11;100.00
17072;BME280;7731;50.720;6.912;2023-01-26T01:50:58;100878.94;;;-2.16;100.00
17072;BME280;7731;50.720;6.912;2023-01-26T01:53:40;100877.41;;;-2.05;100.00
17072;BME280;7731;50.720;6.912;2023-01-26T01:56:16;100883.28;;;-2.06;100.00
17072;BME280;7731;50.720;6.912;2023-01-26T01:58:52;100869.06;;;-2.02;100.00
17072;BME280;7731;50.720;6.912;2023-01-26T02:01:24;100865.09;;;-1.83;100.00
17072;BME280;7731;50.720;6.912;2023-01-26T02:03:59;100864.56;;;-2.23;100.00
17072;BME280;7731;50.720;6.912;2023-01-26T02:06:37;100855.06;;;-1.80;100.00
17072;BME280;7731;50.720;6.912;2023-01-26T02:09:12;100848.78;;;-2.11;100.00
17072;BME280;7731;50.720;6.912;2023-01-26T02:12:07;100856.00;;;-2.35;100.00
17072;BME280;7731;50.720;6.912;2023-01-26T02:14:41;100857.00;;;-1.60;100.00
17072;BME280;7731;50.720;6.912;2023-01-26T02:17:11;100848.84;;;-1.41;100.00
17072;BME280;7731;50.720;6.912;2023-01-26T02:19:59;100844.56;;;-1.47;100.00
17072;BME280;7731;50.720;6.912;2023-01-26T02:22:46;100838.63;;;-2.18;100.00
17072;BME280;7731;50.720;6.912;2023-01-26T02:25:31;100841.66;;;-1.79;100.00
17072;BME280;7731;50.720;6.912;2023-01-26T02:28:08;100835.69;;;-1.89;100.00
17072;BME280;7731;50.720;6.912;2023-01-26T02:30:40;100837.41;;;-1.83;100.00
17072;BME280;7731;50.720;6.912;2023-01-26T02:33:14;100842.13;;;-2.08;100.00
17072;BME280;7731;50.720;6.912;2023-01-26T02:35:46;100844.25;;;-2.36;100.00
17072;BME280;7731;50.720;6.912;2023-01-26T02:38:18;100839.69;;;-2.02;100.00
17072;BME280;7731;50.720;6.912;2023-01-26T02:40:54;100836.66;;;-2.37;100.00
17072;BME280;7731;50.720;6.912;2023-01-26T02:43:28;100829.28;;;-2.26;100.00
17072;BME280;7731;50.720;6.912;2023-01-26T02:45:56;100824.94;;;-1.74;100.00
17072;BME280;7731;50.720;6.912;2023-01-26T02:48:26;100820.81;;;-2.31;100.00
17072;BME280;7731;50.720;6.912;2023-01-26T02:51:10;100823.50;;;-2.21;100.00
17072;BME280;7731;50.720;6.912;2023-01-26T02:53:40;100824.16;;;-2.33;100.00
17072;BME280;7731;50.720;6.912;2023-01-26T02:56:11;100828.13;;;-2.48;100.00
17072;BME280;7731;50.720;6.912;2023-01-26T02:58:41;100830.75;;;-2.42;100.00
17072;BME280;7731;50.720;6.912;2023-01-26T03:01:11;100828.97;;;-2.48;100.00
17072;BME280;7731;50.720;6.912;2023-01-26T03:03:42;100820.56;;;-2.50;100.00
17072;BME280;7731;50.720;6.912;2023-01-26T03:06:12;100820.91;;;-2.25;100.00
17072;BME280;7731;50.720;6.912;2023-01-26T03:08:42;100822.44;;;-2.34;100.00
17072;BME280;7731;50.720;6.912;2023-01-26T03:11:12;100826.69;;;-2.33;100.00
17072;BME280;7731;50.720;6.912;2023-01-26T03:13:45;100822.28;;;-2.46;100.00
17072;BME280;7731;50.720;6.912;2023-01-26T03:16:15;100817.63;;;-2.18;100.00
17072;BME280;7731;50.720;6.912;2023-01-26T03:18:45;100820.59;;;-2.47;100.00
17072;BME280;7731;50.720;6.912;2023-01-26T03:21:28;100815.44;;;-2.56;100.00
17072;BME280;7731;50.720;6.912;2023-01-26T03:24:12;100797.16;;;-2.43;100.00
17072;BME280;7731;50.720;6.912;2023-01-26T03:26:55;100797.75;;;-2.61;100.00
17072;BME280;7731;50.720;6.912;2023-01-26T03:29:41;100805.25;;;-2.64;100.00
17072;BME280;7731;50.720;6.912;2023-01-26T03:32:12;100801.88;;;-2.64;100.00
17072;BME280;7731;50.720;6.912;2023-01-26T03:34:43;100793.44;;;-2.68;100.00
17072;BME280;7731;50.720;6.912;2023-01-26T03:37:13;100780.09;;;-2.65;100.00
17072;BME280;7731;50.720;6.912;2023-01-26T03:39:49;100778.47;;;-2.60;100.00
17072;BME280;7731;50.720;6.912;2023-01-26T03:42:33;100781.84;;;-2.58;100.00
17072;BME280;7731;50.720;6.912;2023-01-26T03:45:18;100779.41;;;-2.54;100.00
17072;BME280;7731;50.720;6.912;2023-01-26T03:48:06;100781.13;;;-2.49;100.00
17072;BME280;7731;50.720;6.912;2023-01-26T03:50:50;100781.31;;;-2.37;100.00
17072;BME280;7731;50.720;6.912;2023-01-26T03:53:32;100768.13;;;-2.21;100.00
17072;BME280;7731;50.720;6.912;2023-01-26T03:56:15;100774.25;;;-2.00;100.00
17072;BME280;7731;50.720;6.912;2023-01-26T03:58:52;100774.78;;;-2.23;100.00
17072;BME280;7731;50.720;6.912;2023-01-26T04:01:25;100774.69;;;-2.30;100.00
17072;BME280;7731;50.720;6.912;2023-01-26T04:03:59;100776.16;;;-2.46;100.00
17072;BME280;7731;50.720;6.912;2023-01-26T04:06:44;100777.66;;;-2.59;100.00
17072;BME280;7731;50.720;6.912;2023-01-26T04:09:28;100765.56;;;-2.82;100.00
17072;BME280;7731;50.720;6.912;2023-01-26T04:11:59;100775.06;;;-2.65;100.00
17072;BME280;7731;50.720;6.912;2023-01-26T04:14:30;100777.72;;;-2.55;100.00
17072;BME280;7731;50.720;6.912;2023-01-26T04:17:22;100777.97;;;-2.38;100.00
17072;BME280;7731;50.720;6.912;2023-01-26T04:20:08;100766.66;;;-2.64;100.00
17072;BME280;7731;50.720;6.912;2023-01-26T04:22:53;100765.13;;;-2.56;100.00
17072;BME280;7731;50.720;6.912;2023-01-26T04:25:23;100767.38;;;-2.73;100.00
17072;BME280;7731;50.720;6.912;2023-01-26T04:27:54;100766.56;;;-2.71;100.00
17072;BME280;7731;50.720;6.912;2023-01-26T04:30:24;100769.19;;;-2.64;100.00
17072;BME280;7731;50.720;6.912;2023-01-26T04:32:57;100770.06;;;-2.62;100.00
17072;BME280;7731;50.720;6.912;2023-01-26T04:35:27;100784.19;;;-2.69;100.00
17072;BME280;7731;50.720;6.912;2023-01-26T04:37:58;100767.88;;;-2.39;100.00
17072;BME280;7731;50.720;6.912;2023-01-26T04:40:29;100770.84;;;-2.65;100.00
17072;BME280;7731;50.720;6.912;2023-01-26T04:42:59;100774.97;;;-2.72;100.00
17072;BME280;7731;50.720;6.912;2023-01-26T04:45:32;100759.03;;;-2.71;100.00
17072;BME280;7731;50.720;6.912;2023-01-26T04:48:07;100766.59;;;-2.69;100.00
17072;BME280;7731;50.720;6.912;2023-01-26T04:50:37;100764.44;;;-2.44;100.00
17072;BME280;7731;50.720;6.912;2023-01-26T04:53:07;100758.41;;;-2.56;100.00
17072;BME280;7731;50.720;6.912;2023-01-26T04:55:37;100757.47;;;-2.64;100.00
17072;BME280;7731;50.720;6.912;2023-01-26T04:58:08;100763.34;;;-2.62;100.00
17072;BME280;7731;50.720;6.912;2023-01-26T05:00:38;100763.28;;;-2.66;100.00
17072;BME280;7731;50.720;6.912;2023-01-26T05:03:11;100765.59;;;-2.80;100.00
17072;BME280;7731;50.720;6.912;2023-01-26T05:05:43;100760.78;;;-2.66;100.00
17072;BME280;7731;50.720;6.912;2023-01-26T05:08:13;100756.03;;;-2.46;100.00
17072;BME280;7731;50.720;6.912;2023-01-26T05:10:44;100745.78;;;-2.60;100.00
17072;BME280;7731;50.720;6.912;2023-01-26T05:13:15;100748.19;;;-2.66;100.00
17072;BME280;7731;50.720;6.912;2023-01-26T05:15:46;100740.97;;;-2.43;100.00
17072;BME280;7731;50.720;6.912;2023-01-26T05:18:19;100741.56;;;-2.61;100.00
17072;BME280;7731;50.720;6.912;2023-01-26T05:20:49;100758.59;;;-2.42;100.00
17072;BME280;7731;50.720;6.912;2023-01-26T05:23:19;100762.06;;;-2.34;100.00
17072;BME280;7731;50.720;6.912;2023-01-26T05:25:50;100754.50;;;-2.35;100.00
17072;BME280;7731;50.720;6.912;2023-01-26T05:28:20;100753.53;;;-2.45;100.00
17072;BME280;7731;50.720;6.912;2023-01-26T05:30:52;100748.47;;;-2.48;100.00
17072;BME280;7731;50.720;6.912;2023-01-26T05:33:26;100751.75;;;-2.52;100.00
17072;BME280;7731;50.720;6.912;2023-01-26T05:35:56;100763.34;;;-2.62;100.00
17072;BME280;7731;50.720;6.912;2023-01-26T05:38:27;100763.28;;;-2.66;100.00
17072;BME280;7731;50.720;6.912;2023-01-26T05:40:58;100763.63;;;-2.42;100.00
17072;BME280;7731;50.720;6.912;2023-01-26T05:43:28;100770.00;;;-1.24;100.00
17072;BME280;7731;50.720;6.912;2023-01-26T05:45:58;100778.81;;;-1.70;100.00
17072;BME280;7731;50.720;6.912;2023-01-26T05:48:31;100775.78;;;-2.13;100.00
17072;BME280;7731;50.720;6.912;2023-01-26T05:51:01;100781.84;;;-1.95;100.00
17072;BME280;7731;50.720;6.912;2023-01-26T05:53:34;100782.72;;;-1.93;100.00
17072;BME280;7731;50.720;6.912;2023-01-26T05:56:09;100775.88;;;-2.04;100.00
17072;BME280;7731;50.720;6.912;2023-01-26T05:58:40;100773.44;;;-1.99;100.00
17072;BME280;7731;50.720;6.912;2023-01-26T06:01:10;100775.06;;;-2.04;100.00
17072;BME280;7731;50.720;6.912;2023-01-26T06:03:45;100781.06;;;-1.91;100.00
17072;BME280;7731;50.720;6.912;2023-01-26T06:06:16;100776.06;;;-1.88;100.00
17072;BME280;7731;50.720;6.912;2023-01-26T06:08:46;100770.97;;;-1.94;100.00
17072;BME280;7731;50.720;6.912;2023-01-26T06:11:17;100770.03;;;-2.03;100.00
17072;BME280;7731;50.720;6.912;2023-01-26T06:13:47;100778.31;;;-2.10;100.00
17072;BME280;7731;50.720;6.912;2023-01-26T06:16:17;100774.03;;;-2.17;100.00
17072;BME280;7731;50.720;6.912;2023-01-26T06:18:52;100776.69;;;-2.05;100.00
17072;BME280;7731;50.720;6.912;2023-01-26T06:21:22;100784.25;;;-2.05;100.00
17072;BME280;7731;50.720;6.912;2023-01-26T06:23:53;100776.72;;;-2.03;100.00
17072;BME280;7731;50.720;6.912;2023-01-26T06:26:25;100779.41;;;-1.89;100.00
17072;BME280;7731;50.720;6.912;2023-01-26T06:28:56;100789.31;;;-2.02;100.00
17072;BME280;7731;50.720;6.912;2023-01-26T06:31:26;100788.41;;;-2.08;100.00
17072;BME280;7731;50.720;6.912;2023-01-26T06:34:02;100790.91;;;-2.10;100.00
17072;BME280;7731;50.720;6.912;2023-01-26T06:36:32;100785.88;;;-2.10;100.00
17072;BME280;7731;50.720;6.912;2023-01-26T06:39:03;100787.50;;;-2.12;100.00
17072;BME280;7731;50.720;6.912;2023-01-26T06:41:33;100792.72;;;-2.00;100.00
17072;BME280;7731;50.720;6.912;2023-01-26T06:44:04;100797.81;;;-1.96;100.00
17072;BME280;7731;50.720;6.912;2023-01-26T06:46:34;100784.38;;;-1.95;100.00
17072;BME280;7731;50.720;6.912;2023-01-26T06:49:08;100796.03;;;-2.04;100.00
17072;BME280;7731;50.720;6.912;2023-01-26T06:51:55;100786.75;;;-2.06;100.00
17072;BME280;7731;50.720;6.912;2023-01-26T06:54:26;100780.09;;;-2.03;100.00
17072;BME280;7731;50.720;6.912;2023-01-26T06:56:56;100790.28;;;-1.93;100.00
17072;BME280;7731;50.720;6.912;2023-01-26T06:59:26;100784.75;;;-1.62;100.00
17072;BME280;7731;50.720;6.912;2023-01-26T07:01:56;100793.03;;;-1.75;100.00
17072;BME280;7731;50.720;6.912;2023-01-26T07:04:29;100798.03;;;-1.78;100.00
17072;BME280;7731;50.720;6.912;2023-01-26T07:07:00;100801.19;;;-1.94;100.00
17072;BME280;7731;50.720;6.912;2023-01-26T07:09:30;100799.69;;;-1.77;100.00
17072;BME280;7731;50.720;6.912;2023-01-26T07:12:00;100800.38;;;-1.93;100.00
17072;BME280;7731;50.720;6.912;2023-01-26T07:14:31;100809.56;;;-1.95;100.00
17072;BME280;7731;50.720;6.912;2023-01-26T07:17:02;100811.31;;;-1.88;100.00
17072;BME280;7731;50.720;6.912;2023-01-26T07:19:35;100816.22;;;-2.01;100.00
17072;BME280;7731;50.720;6.912;2023-01-26T07:22:05;100808.88;;;-1.82;100.00
17072;BME280;7731;50.720;6.912;2023-01-26T07:24:35;100815.91;;;-1.58;100.00
17072;BME280;7731;50.720;6.912;2023-01-26T07:27:05;100808.81;;;-1.10;100.00
17072;BME280;7731;50.720;6.912;2023-01-26T07:29:36;100808.53;;;-1.38;100.00
17072;BME280;7731;50.720;6.912;2023-01-26T07:32:07;100805.84;;;-1.55;100.00
17072;BME280;7731;50.720;6.912;2023-01-26T07:34:40;100804.94;;;-1.58;100.00
17072;BME280;7731;50.720;6.912;2023-01-26T07:37:10;100807.31;;;-1.71;100.00
17072;BME280;7731;50.720;6.912;2023-01-26T07:39:41;100798.25;;;-1.59;100.00
17072;BME280;7731;50.720;6.912;2023-01-26T07:42:11;100811.59;;;-1.67;100.00
17072;BME280;7731;50.720;6.912;2023-01-26T07:44:42;100811.50;;;-1.73;100.00
17072;BME280;7731;50.720;6.912;2023-01-26T07:47:13;100814.13;;;-1.64;100.00
17072;BME280;7731;50.720;6.912;2023-01-26T07:49:47;100815.03;;;-1.58;100.00
17072;BME280;7731;50.720;6.912;2023-01-26T07:52:18;100808.06;;;-1.81;100.00
17072;BME280;7731;50.720;6.912;2023-01-26T07:54:49;100808.41;;;-1.50;100.00
17072;BME280;7731;50.720;6.912;2023-01-26T07:57:19;100798.09;;;-1.72;100.00
17072;BME280;7731;50.720;6.912;2023-01-26T07:59:57;100793.22;;;-1.56;100.00
17072;BME280;7731;50.720;6.912;2023-01-26T08:02:27;100794.94;;;-1.52;100.00
17072;BME280;7731;50.720;6.912;2023-01-26T08:05:00;100798.44;;;-1.41;100.00
17072;BME280;7731;50.720;6.912;2023-01-26T08:07:30;100801.50;;;-1.67;100.00
17072;BME280;7731;50.720;6.912;2023-01-26T08:10:01;100808.88;;;-1.84;100.00
17072;BME280;7731;50.720;6.912;2023-01-26T08:12:34;100801.41;;;-1.76;100.00
17072;BME280;7731;50.720;6.912;2023-01-26T08:15:08;100803.28;;;-1.59;100.00
17072;BME280;7731;50.720;6.912;2023-01-26T08:17:41;100810.91;;;-1.53;100.00
17072;BME280;7731;50.720;6.912;2023-01-26T08:20:14;100811.84;;;-1.42;100.00
17072;BME280;7731;50.720;6.912;2023-01-26T08:22:44;100803.31;;;-1.56;100.00
17072;BME280;7731;50.720;6.912;2023-01-26T08:25:16;100798.44;;;-1.39;100.00
17072;BME280;7731;50.720;6.912;2023-01-26T08:27:46;100806.84;;;-1.39;100.00
17072;BME280;7731;50.720;6.912;2023-01-26T08:30:17;100799.22;;;-1.44;100.00
17072;BME280;7731;50.720;6.912;2023-01-26T08:32:47;100801.75;;;-1.45;100.00
17072;BME280;7731;50.720;6.912;2023-01-26T08:35:20;100812.16;;;-1.11;100.00
17072;BME280;7731;50.720;6.912;2023-01-26T08:37:50;100817.13;;;-1.17;100.00
17072;BME280;7731;50.720;6.912;2023-01-26T08:40:20;100815.78;;;-0.83;100.00
17072;BME280;7731;50.720;6.912;2023-01-26T08:42:53;100817.56;;;-0.68;100.00
17072;BME280;7731;50.720;6.912;2023-01-26T08:45:23;100814.13;;;-0.79;100.00
17072;BME280;7731;50.720;6.912;2023-01-26T08:47:53;100817.41;;;-0.88;100.00
17072;BME280;7731;50.720;6.912;2023-01-26T08:50:27;100815.94;;;-0.63;100.00
17072;BME280;7731;50.720;6.912;2023-01-26T08:52:57;100824.13;;;-0.88;100.00
17072;BME280;7731;50.720;6.912;2023-01-26T08:55:27;100824.06;;;-0.98;100.00
17072;BME280;7731;50.720;6.912;2023-01-26T08:57:58;100821.41;;;-1.10;100.00
17072;BME280;7731;50.720;6.912;2023-01-26T09:00:29;100822.31;;;-1.02;100.00
17072;BME280;7731;50.720;6.912;2023-01-26T09:03:01;100814.03;;;-0.88;100.00
17072;BME280;7731;50.720;6.912;2023-01-26T09:05:37;100819.75;;;-1.10;100.00
17072;BME280;7731;50.720;6.912;2023-01-26T09:08:08;100812.34;;;-0.88;100.00
17072;BME280;7731;50.720;6.912;2023-01-26T09:10:42;100814.16;;;-0.76;100.00
17072;BME280;7731;50.720;6.912;2023-01-26T09:13:12;100816.03;;;-0.50;100.00
17072;BME280;7731;50.720;6.912;2023-01-26T09:15:43;100815.66;;;0.45;100.00
17072;BME280;7731;50.720;6.912;2023-01-26T09:18:13;100825.63;;;0.06;100.00
17072;BME280;7731;50.720;6.912;2023-01-26T09:20:49;100828.69;;;-0.46;100.00
17072;BME280;7731;50.720;6.912;2023-01-26T09:23:23;100834.44;;;-0.64;100.00
17072;BME280;7731;50.720;6.912;2023-01-26T09:25:53;100831.19;;;-0.47;100.00
17072;BME280;7731;50.720;6.912;2023-01-26T09:28:23;100839.50;;;-0.61;100.00
17072;BME280;7731;50.720;6.912;2023-01-26T09:30:53;100838.59;;;-0.70;100.00
17072;BME280;7731;50.720;6.912;2023-01-26T09:33:24;100841.34;;;-0.41;100.00
17072;BME280;7731;50.720;6.912;2023-01-26T09:36:03;100848.03;;;-0.43;100.00
17072;BME280;7731;50.720;6.912;2023-01-26T09:38:33;100844.50;;;-0.67;100.00
17072;BME280;7731;50.720;6.912;2023-01-26T09:41:20;100846.97;;;-0.75;100.00
17072;BME280;7731;50.720;6.912;2023-01-26T09:44:04;100854.44;;;-0.85;100.00
17072;BME280;7731;50.720;6.912;2023-01-26T09:46:53;100856.25;;;-0.69;100.00
17072;BME280;7731;50.720;6.912;2023-01-26T09:49:41;100850.81;;;-0.02;100.00
17072;BME280;7731;50.720;6.912;2023-01-26T09:52:24;100857.25;;;-0.50;100.00
17072;BME280;7731;50.720;6.912;2023-01-26T09:55:02;100856.47;;;-0.43;100.00
17072;BME280;7731;50.720;6.912;2023-01-26T09:57:46;100856.53;;;-0.32;100.00
17072;BME280;7731;50.720;6.912;2023-01-26T10:00:25;100858.22;;;-0.29;100.00
17072;BME280;7731;50.720;6.912;2023-01-26T10:03:10;100850.56;;;-0.40;100.00
17072;BME280;7731;50.720;6.912;2023-01-26T10:05:50;100844.88;;;-0.11;100.00
17072;BME280;7731;50.720;6.912;2023-01-26T10:08:24;100834.84;;;0.04;100.00
17072;BME280;7731;50.720;6.912;2023-01-26T10:11:00;100848.88;;;-0.46;100.00
17072;BME280;7731;50.720;6.912;2023-01-26T10:13:35;100852.22;;;-0.45;100.00
17072;BME280;7731;50.720;6.912;2023-01-26T10:16:08;100844.72;;;-0.36;100.00
17072;BME280;7731;50.720;6.912;2023-01-26T10:18:49;100842.03;;;-0.59;100.00
17072;BME280;7731;50.720;6.912;2023-01-26T10:21:25;100842.09;;;-0.51;100.00
17072;BME280;7731;50.720;6.912;2023-01-26T10:24:02;100831.78;;;-0.79;100.00
17072;BME280;7731;50.720;6.912;2023-01-26T10:26:34;100835.09;;;-0.85;100.00
17072;BME280;7731;50.720;6.912;2023-01-26T10:29:05;100831.00;;;-0.72;100.00
17072;BME280;7731;50.720;6.912;2023-01-26T10:31:35;100831.06;;;-0.66;100.00
17072;BME280;7731;50.720;6.912;2023-01-26T10:34:13;100826.19;;;-0.41;100.00
17072;BME280;7731;50.720;6.912;2023-01-26T10:36:46;100825.41;;;-0.31;100.00
17072;BME280;7731;50.720;6.912;2023-01-26T10:39:20;100825.41;;;-0.29;100.00
17072;BME280;7731;50.720;6.912;2023-01-26T10:41:59;100827.94;;;-0.28;100.00
17072;BME280;7731;50.720;6.912;2023-01-26T10:44:36;100828.03;;;-0.09;100.00
17072;BME280;7731;50.720;6.912;2023-01-26T10:47:16;100817.94;;;-0.09;100.00
17072;BME280;7731;50.720;6.912;2023-01-26T10:49:48;100822.06;;;-0.28;100.00
17072;BME280;7731;50.720;6.912;2023-01-26T10:52:23;100826.31;;;-0.20;100.00
17072;BME280;7731;50.720;6.912;2023-01-26T10:55:15;100814.38;;;-0.44;100.00
17072;BME280;7731;50.720;6.912;2023-01-26T10:57:49;100812.81;;;-0.25;100.00
17072;BME280;7731;50.720;6.912;2023-01-26T11:00:25;100806.31;;;0.21;100.00
17072;BME280;7731;50.720;6.912;2023-01-26T11:03:05;100806.13;;;-0.20;100.00
17072;BME280;7731;50.720;6.912;2023-01-26T11:05:45;100803.63;;;-0.15;100.00
17072;BME280;7731;50.720;6.912;2023-01-26T11:08:33;100800.06;;;-0.46;100.00
17072;BME280;7731;50.720;6.912;2023-01-26T11:11:22;100794.25;;;-0.33;100.00
17072;BME280;7731;50.720;6.912;2023-01-26T11:14:13;100798.41;;;-0.44;100.00
17072;BME280;7731;50.720;6.912;2023-01-26T11:16:51;100794.25;;;-0.31;100.00
17072;BME280;7731;50.720;6.912;2023-01-26T11:19:49;100792.59;;;-0.28;100.00
17072;BME280;7731;50.720;6.912;2023-01-26T11:22:34;100786.69;;;-0.28;100.00
17072;BME280;7731;50.720;6.912;2023-01-26T11:25:24;100784.13;;;-0.39;100.00
17072;BME280;7731;50.720;6.912;2023-01-26T11:28:23;100780.81;;;-0.29;100.00
17072;BME280;7731;50.720;6.912;2023-01-26T11:31:16;100777.63;;;0.03;100.00
17072;BME280;7731;50.720;6.912;2023-01-26T11:34:04;100772.56;;;0.03;100.00
17072;BME280;7731;50.720;6.912;2023-01-26T11:36:47;100775.00;;;-0.08;100.00
17072;BME280;7731;50.720;6.912;2023-01-26T11:39:30;100780.97;;;0.05;100.00
17072;BME280;7731;50.720;6.912;2023-01-26T11:42:20;100778.47;;;0.08;100.00
17072;BME280;7731;50.720;6.912;2023-01-26T11:45:16;100770.91;;;0.10;100.00
17072;BME280;7731;50.720;6.912;2023-01-26T11:48:06;100764.81;;;-0.28;100.00
17072;BME280;7731;50.720;6.912;2023-01-26T11:50:45;100763.25;;;-0.09;100.00
17072;BME280;7731;50.720;6.912;2023-01-26T11:53:48;100757.41;;;0.03;100.00
17072;BME280;7731;50.720;6.912;2023-01-26T11:56:36;100756.47;;;-0.13;100.00
17072;BME280;7731;50.720;6.912;2023-01-26T11:59:16;100759.84;;;-0.11;100.00
17072;BME280;7731;50.720;6.912;2023-01-26T12:01:57;100758.97;;;-0.17;100.00
17072;BME280;7731;50.720;6.912;2023-01-26T12:04:35;100762.31;;;-0.25;100.00
17072;BME280;7731;50.720;6.912;2023-01-26T12:07:19;100752.22;;;-0.23;100.00
17072;BME280;7731;50.720;6.912;2023-01-26T12:09:51;100753.84;;;-0.33;100.00
17072;BME280;7731;50.720;6.912;2023-01-26T12:12:31;100743.88;;;-0.08;100.00
17072;BME280;7731;50.720;6.912;2023-01-26T12:15:12;100746.41;;;-0.01;100.00
17072;BME280;7731;50.720;6.912;2023-01-26T12:17:57;100740.50;;;-0.07;100.00
17072;BME280;7731;50.720;6.912;2023-01-26T12:20:36;100746.41;;;-0.01;100.00
17072;BME280;7731;50.720;6.912;2023-01-26T12:23:15;100747.38;;;0.31;100.00
17072;BME280;7731;50.720;6.912;2023-01-26T12:25:56;100735.59;;;0.39;100.00
17072;BME280;7731;50.720;6.912;2023-01-26T12:28:40;100739.00;;;0.75;100.00
17072;BME280;7731;50.720;6.912;2023-01-26T12:31:22;100743.19;;;0.47;100.00
17072;BME280;7731;50.720;6.912;2023-01-26T12:33:58;100738.16;;;0.76;100.00
17072;BME280;7731;50.720;6.912;2023-01-26T12:36:43;100732.16;;;0.03;100.00
17072;BME280;7731;50.720;6.912;2023-01-26T12:39:23;100728.72;;;-0.05;100.00
17072;BME280;7731;50.720;6.912;2023-01-26T12:42:21;100733.75;;;-0.14;100.00
17072;BME280;7731;50.720;6.912;2023-01-26T12:44:59;100728.00;;;0.30;100.00
17072;BME280;7731;50.720;6.912;2023-01-26T12:47:35;100727.13;;;0.14;100.00
17072;BME280;7731;50.720;6.912;2023-01-26T12:50:22;100720.31;;;-0.10;100.00
17072;BME280;7731;50.720;6.912;2023-01-26T12:53:00;100711.78;;;-0.31;100.00
17072;BME280;7731;50.720;6.912;2023-01-26T12:55:43;100710.31;;;0.27;100.00
17072;BME280;7731;50.720;6.912;2023-01-26T12:58:21;100717.00;;;0.03;100.00
17072;BME280;7731;50.720;6.912;2023-01-26T13:01:02;100711.97;;;0.19;100.00
17072;BME280;7731;50.720;6.912;2023-01-26T13:03:35;100709.41;;;0.05;100.00
17072;BME280;7731;50.720;6.912;2023-01-26T13:06:22;100711.94;;;0.03;100.00
17072;BME280;7731;50.720;6.912;2023-01-26T13:09:02;100715.34;;;0.24;100.00
17072;BME280;7731;50.720;6.912;2023-01-26T13:12:03;100711.94;;;0.06;100.00
17072;BME280;7731;50.720;6.912;2023-01-26T13:14:37;100703.53;;;0.16;100.00
17072;BME280;7731;50.720;6.912;2023-01-26T13:17:51;100704.44;;;0.96;100.00
17072;BME280;7731;50.720;6.912;2023-01-26T13:20:45;100705.28;;;0.88;100.00
17072;BME280;7731;50.720;6.912;2023-01-26T13:23:45;100706.91;;;0.15;100.00
17072;BME280;7731;50.720;6.912;2023-01-26T13:29:33;100700.97;;;0.04;100.00
17072;BME280;7731;50.720;6.912;2023-01-26T13:35:26;100702.59;;;-0.15;100.00
17072;BME280;7731;50.720;6.912;2023-01-26T13:38:10;100702.69;;;0.13;100.00
17072;BME280;7731;50.720;6.912;2023-01-26T13:40:48;100696.88;;;0.56;100.00